Time;durP1;ratioP1;P1;durP2;ratioP2;P2;SDS_P1;SDS_P2;PMS_P1;PMS_P2;Temp;Humidity;BMP_temperature;BMP_pressure;BME280_temperature;BME280_humidity;BME280_pressure;Samples;Min_cycle;Max_cycle;Signal;HPM_P1;HPM_P2
2022/10/24 00:00:22;;;;;;;5.82;3.70;;;15.30;98.30;;;;;;4914351;29;20091;-76
2022/10/24 00:02:48;;;;;;;6.97;3.58;;;15.30;98.40;;;;;;4919348;29;20040;-76
2022/10/24 00:05:14;;;;;;;5.85;3.88;;;15.30;98.40;;;;;;4919589;29;20030;-76
2022/10/24 00:07:40;;;;;;;6.60;4.03;;;15.30;98.50;;;;;;4920710;29;20290;-76
2022/10/24 00:10:07;;;;;;;12.55;3.88;;;15.30;98.40;;;;;;4911501;29;20070;-76
2022/10/24 00:12:33;;;;;;;6.70;3.78;;;15.30;98.60;;;;;;4913139;29;20173;-75
2022/10/24 00:14:59;;;;;;;4.90;3.85;;;15.20;98.70;;;;;;4916360;29;20040;-76
2022/10/24 00:17:25;;;;;;;6.55;3.83;;;15.20;98.90;;;;;;4919369;29;20504;-75
2022/10/24 00:19:53;;;;;;;5.88;3.83;;;15.20;99.30;;;;;;4914718;29;20027;-76
2022/10/24 00:22:19;;;;;;;6.15;4.10;;;15.10;99.50;;;;;;4913971;29;20036;-75
2022/10/24 00:24:45;;;;;;;6.60;3.65;;;15.20;99.80;;;;;;4914172;29;20028;-75
2022/10/24 00:27:11;;;;;;;3.97;3.60;;;15.10;99.80;;;;;;4910946;29;20028;-75
2022/10/24 00:29:37;;;;;;;9.15;3.53;;;15.10;99.90;;;;;;4918439;29;20038;-75
2022/10/24 00:32:03;;;;;;;6.55;3.70;;;15.10;99.90;;;;;;4914956;29;20765;-75
2022/10/24 00:34:29;;;;;;;5.82;3.20;;;15.10;99.90;;;;;;4915925;29;20037;-75
2022/10/24 00:36:54;;;;;;;10.43;3.95;;;15.20;99.90;;;;;;4911463;29;20040;-76
2022/10/24 00:39:20;;;;;;;7.95;3.75;;;15.10;99.90;;;;;;4911993;29;20043;-75
2022/10/24 00:41:46;;;;;;;6.30;3.67;;;15.10;99.90;;;;;;4918464;29;20091;-75
2022/10/24 00:44:15;;;;;;;6.45;4.00;;;15.10;99.90;;;;;;4912282;29;20040;-76
2022/10/24 00:46:45;;;;;;;6.90;3.58;;;15.10;99.90;;;;;;4917671;29;20043;-75
2022/10/24 00:49:21;;;;;;;5.93;3.75;;;15.00;99.90;;;;;;4914854;29;20028;-76
2022/10/24 00:51:51;;;;;;;5.95;3.95;;;15.00;99.90;;;;;;4915632;29;20067;-76
2022/10/24 00:54:18;;;;;;;6.55;3.60;;;15.00;99.90;;;;;;4914036;29;20733;-76
2022/10/24 00:56:52;;;;;;;5.57;3.95;;;15.00;99.90;;;;;;4912706;29;20111;-75
2022/10/24 00:59:19;;;;;;;6.10;3.85;;;15.00;99.90;;;;;;4922339;29;20039;-76
2022/10/24 01:01:46;;;;;;;9.23;4.35;;;14.90;99.90;;;;;;4918514;29;20149;-75
2022/10/24 01:04:13;;;;;;;6.80;3.58;;;15.00;99.90;;;;;;4914525;29;20500;-75
2022/10/24 01:06:56;;;;;;;5.47;3.53;;;14.90;99.90;;;;;;4910414;29;20032;-75
2022/10/24 01:09:48;;;;;;;5.97;3.03;;;15.00;99.90;;;;;;4914454;29;20047;-75
2022/10/24 01:12:45;;;;;;;4.53;3.60;;;15.00;99.90;;;;;;4914342;29;20576;-76
2022/10/24 01:15:34;;;;;;;8.18;3.55;;;15.00;99.90;;;;;;4911031;29;20051;-75
2022/10/24 01:18:23;;;;;;;3.15;2.72;;;15.00;99.90;;;;;;4888303;29;20063;-69
2022/10/24 01:21:23;;;;;;;3.40;2.60;;;15.00;99.90;;;;;;4913264;29;20067;-69
2022/10/24 01:24:06;;;;;;;4.10;2.85;;;15.00;99.90;;;;;;4919358;29;20159;-69
2022/10/24 01:27:00;;;;;;;4.75;2.88;;;15.00;99.90;;;;;;4910481;29;20063;-70
2022/10/24 01:29:42;;;;;;;5.18;3.22;;;15.00;99.90;;;;;;4917589;29;20643;-69
2022/10/24 01:32:19;;;;;;;5.88;3.17;;;14.90;99.90;;;;;;4913711;29;20044;-69
2022/10/24 01:34:53;;;;;;;5.13;3.13;;;15.00;99.90;;;;;;4913681;29;20118;-69
2022/10/24 01:37:24;;;;;;;4.32;3.03;;;14.90;99.90;;;;;;4920758;29;20575;-70
2022/10/24 01:39:55;;;;;;;4.88;2.58;;;15.00;99.90;;;;;;4918414;29;20050;-69
2022/10/24 01:42:24;;;;;;;4.85;3.20;;;15.00;99.90;;;;;;4910756;29;20122;-76
2022/10/24 01:44:54;;;;;;;5.70;2.90;;;15.00;99.90;;;;;;4926854;29;20024;-76
2022/10/24 01:47:30;;;;;;;3.60;2.55;;;15.00;99.90;;;;;;4918430;29;20028;-75
2022/10/24 01:50:02;;;;;;;4.65;2.95;;;15.00;99.90;;;;;;4911679;29;20051;-76
2022/10/24 01:52:33;;;;;;;3.95;2.35;;;15.00;99.90;;;;;;4921124;29;20079;-76
2022/10/24 01:54:59;;;;;;;5.68;3.00;;;15.00;99.90;;;;;;4917311;29;20114;-76
2022/10/24 01:57:30;;;;;;;7.55;3.38;;;15.00;99.90;;;;;;4918437;29;20090;-76
2022/10/24 01:59:56;;;;;;;5.22;2.95;;;15.00;99.90;;;;;;4910611;29;20062;-76
2022/10/24 02:02:37;;;;;;;4.03;3.13;;;15.00;99.90;;;;;;4914297;29;20036;-76
2022/10/24 02:05:14;;;;;;;3.03;2.65;;;15.00;99.90;;;;;;4917195;29;20042;-76
2022/10/24 02:07:44;;;;;;;4.78;2.75;;;14.90;99.90;;;;;;4926629;29;20108;-76
2022/10/24 02:10:18;;;;;;;5.40;3.03;;;15.00;99.90;;;;;;4915274;29;20042;-76
2022/10/24 02:12:52;;;;;;;5.60;2.42;;;15.00;99.90;;;;;;4910372;29;20035;-76
2022/10/24 02:15:28;;;;;;;4.72;2.10;;;15.00;99.90;;;;;;4910546;29;20036;-76
2022/10/24 02:17:55;;;;;;;3.75;2.10;;;14.90;99.90;;;;;;4918837;29;20451;-76
2022/10/24 02:20:41;;;;;;;4.07;2.63;;;14.90;99.90;;;;;;4917510;29;20764;-76
2022/10/24 02:23:20;;;;;;;2.88;2.30;;;14.90;99.90;;;;;;4928639;29;20354;-76
2022/10/24 02:25:50;;;;;;;2.63;2.15;;;14.90;99.90;;;;;;4918409;29;20036;-76
2022/10/24 02:28:21;;;;;;;6.18;2.90;;;14.90;99.90;;;;;;4915830;29;20777;-76
2022/10/24 02:31:05;;;;;;;5.53;2.78;;;14.90;99.90;;;;;;4913354;29;20032;-76
2022/10/24 02:33:33;;;;;;;3.97;2.38;;;14.90;99.90;;;;;;4912098;29;20036;-76
2022/10/24 02:36:00;;;;;;;5.40;2.72;;;14.80;99.90;;;;;;4915585;29;20555;-76
2022/10/24 02:38:39;;;;;;;5.28;2.13;;;14.80;99.90;;;;;;4914797;29;20036;-76
2022/10/24 02:41:10;;;;;;;6.18;2.92;;;14.90;99.90;;;;;;4907123;29;20363;-76
2022/10/24 02:43:39;;;;;;;5.88;2.50;;;14.90;99.90;;;;;;4915571;29;20068;-76
2022/10/24 02:46:06;;;;;;;4.28;3.15;;;14.90;99.90;;;;;;4915692;29;20415;-76
2022/10/24 02:48:37;;;;;;;4.80;2.65;;;14.90;99.90;;;;;;4914696;29;20488;-76
2022/10/24 02:51:04;;;;;;;4.55;2.80;;;14.80;99.90;;;;;;4914128;29;20043;-76
2022/10/24 02:53:29;;;;;;;5.20;2.40;;;14.80;99.90;;;;;;4911897;29;20028;-69
2022/10/24 02:55:55;;;;;;;5.15;2.45;;;14.80;99.90;;;;;;4918231;29;20523;-70
2022/10/24 02:58:21;;;;;;;6.32;2.63;;;14.80;99.90;;;;;;4917104;29;20016;-70
2022/10/24 03:00:47;;;;;;;5.65;2.72;;;14.80;99.90;;;;;;4910717;29;20038;-70
2022/10/24 03:03:13;;;;;;;6.97;2.85;;;14.80;99.90;;;;;;4911128;29;20048;-70
2022/10/24 03:05:38;;;;;;;4.72;2.35;;;14.80;99.90;;;;;;4915235;29;20035;-70
2022/10/24 03:08:04;;;;;;;12.02;3.00;;;14.70;99.90;;;;;;4909257;29;20032;-70
2022/10/24 03:10:30;;;;;;;3.53;2.60;;;14.70;99.90;;;;;;4911831;29;20789;-70
2022/10/24 03:12:56;;;;;;;6.65;2.70;;;14.80;99.90;;;;;;4915101;29;20040;-70
2022/10/24 03:15:22;;;;;;;3.05;2.45;;;14.80;99.90;;;;;;4918636;29;20082;-70
2022/10/24 03:17:48;;;;;;;3.55;2.20;;;14.80;99.90;;;;;;4911965;29;20039;-70
2022/10/24 03:20:15;;;;;;;5.28;3.03;;;14.80;99.90;;;;;;4915226;29;20489;-70
2022/10/24 03:22:40;;;;;;;3.25;2.10;;;14.90;99.90;;;;;;4911246;29;20047;-70
2022/10/24 03:25:07;;;;;;;7.93;2.80;;;14.80;99.90;;;;;;4911564;29;20036;-69
2022/10/24 03:27:33;;;;;;;4.97;2.78;;;14.80;99.90;;;;;;4913859;29;20785;-70
2022/10/24 03:30:00;;;;;;;5.50;2.53;;;14.80;99.90;;;;;;4908821;29;20040;-70
2022/10/24 03:32:26;;;;;;;5.57;3.47;;;14.70;99.90;;;;;;4915785;29;20091;-70
2022/10/24 03:34:52;;;;;;;4.97;3.17;;;14.70;99.90;;;;;;4917856;29;20043;-69
2022/10/24 03:37:18;;;;;;;4.32;2.67;;;14.70;99.90;;;;;;4913047;29;20136;-70
2022/10/24 03:39:44;;;;;;;6.05;2.90;;;14.70;99.90;;;;;;4910878;29;20080;-70
2022/10/24 03:42:10;;;;;;;6.10;2.58;;;14.80;99.90;;;;;;4912769;29;20043;-69
2022/10/24 03:44:36;;;;;;;5.75;2.88;;;14.80;99.90;;;;;;4908131;29;20035;-70
2022/10/24 03:47:02;;;;;;;5.68;3.05;;;14.80;99.90;;;;;;4914773;29;20413;-76
2022/10/24 03:49:28;;;;;;;6.85;2.90;;;14.80;99.90;;;;;;4917222;29;20020;-76
2022/10/24 03:51:53;;;;;;;5.95;2.50;;;14.80;99.90;;;;;;4921457;29;20047;-76
2022/10/24 03:54:19;;;;;;;4.03;2.50;;;14.80;99.90;;;;;;4913356;29;20047;-76
2022/10/24 03:56:46;;;;;;;9.48;2.63;;;14.90;99.90;;;;;;4916221;29;20119;-76
2022/10/24 03:59:12;;;;;;;3.33;2.63;;;14.90;99.90;;;;;;4911688;29;20079;-76
2022/10/24 04:01:38;;;;;;;4.82;2.67;;;14.90;99.90;;;;;;4916743;29;20058;-76
2022/10/24 04:04:04;;;;;;;5.05;2.28;;;14.90;99.90;;;;;;4915163;29;20158;-77
2022/10/24 04:06:30;;;;;;;4.70;2.03;;;14.90;99.90;;;;;;4913391;29;20550;-76
2022/10/24 04:08:56;;;;;;;4.07;2.70;;;14.90;99.90;;;;;;4914366;29;20619;-76
2022/10/24 04:11:22;;;;;;;3.38;2.53;;;14.80;99.90;;;;;;4909227;29;20836;-77
2022/10/24 04:13:48;;;;;;;4.80;2.92;;;14.80;99.90;;;;;;4909134;29;20071;-76
2022/10/24 04:16:14;;;;;;;5.40;2.25;;;14.80;99.90;;;;;;4916552;29;20135;-76
2022/10/24 04:18:40;;;;;;;9.65;3.33;;;14.80;99.90;;;;;;4936799;29;20456;-77
2022/10/24 04:21:05;;;;;;;3.10;2.28;;;14.80;99.90;;;;;;4920368;29;20035;-76
2022/10/24 04:23:34;;;;;;;4.28;2.58;;;14.80;99.90;;;;;;4916707;29;20027;-76
2022/10/24 04:26:00;;;;;;;5.25;2.15;;;14.80;99.90;;;;;;4934994;29;20039;-77
2022/10/24 04:28:28;;;;;;;5.05;2.97;;;14.80;99.90;;;;;;4912668;29;20029;-77
2022/10/24 04:30:57;;;;;;;5.65;2.88;;;14.80;99.90;;;;;;4905440;29;20039;-76
2022/10/24 04:33:23;;;;;;;3.72;2.65;;;14.80;99.90;;;;;;4911631;29;20066;-76
2022/10/24 04:35:50;;;;;;;6.10;3.35;;;14.80;99.90;;;;;;4919789;29;20044;-77
2022/10/24 04:38:16;;;;;;;8.02;3.08;;;14.70;99.90;;;;;;4915546;29;20035;-76
2022/10/24 04:40:52;;;;;;;7.30;3.67;;;14.70;99.90;;;;;;4914845;29;20847;-76
2022/10/24 04:43:20;;;;;;;9.05;3.42;;;14.70;99.90;;;;;;4915181;29;20036;-77
2022/10/24 04:45:46;;;;;;;5.05;3.03;;;14.70;99.90;;;;;;4915755;29;20032;-76
2022/10/24 04:48:13;;;;;;;7.47;3.10;;;14.70;99.90;;;;;;4923226;29;20039;-77
2022/10/24 04:50:41;;;;;;;4.68;2.50;;;14.70;99.90;;;;;;4925928;29;20150;-70
2022/10/24 04:53:07;;;;;;;4.28;2.95;;;14.70;99.90;;;;;;4935205;28;20563;-70
2022/10/24 04:55:34;;;;;;;5.05;3.00;;;14.70;99.90;;;;;;4924947;29;20175;-70
2022/10/24 04:57:59;;;;;;;4.32;2.92;;;14.70;99.90;;;;;;4920382;29;20688;-70
2022/10/24 05:00:25;;;;;;;9.88;3.35;;;14.60;99.90;;;;;;4919762;29;20032;-70
2022/10/24 05:02:51;;;;;;;5.82;2.53;;;14.60;99.90;;;;;;4923464;29;20031;-70
2022/10/24 05:05:17;;;;;;;3.70;2.53;;;14.60;99.90;;;;;;4929699;29;20567;-70
2022/10/24 05:07:43;;;;;;;4.85;2.88;;;14.60;99.90;;;;;;4924551;29;20035;-70
2022/10/24 05:10:09;;;;;;;4.47;2.90;;;14.70;99.90;;;;;;4926148;29;20044;-70
2022/10/24 05:12:35;;;;;;;9.77;3.00;;;14.70;99.90;;;;;;4926214;29;20039;-70
2022/10/24 05:15:01;;;;;;;8.02;2.70;;;14.70;99.90;;;;;;4922822;29;20039;-70
2022/10/24 05:17:27;;;;;;;7.88;2.97;;;14.70;99.90;;;;;;4925632;29;20038;-70
2022/10/24 05:19:52;;;;;;;7.93;3.40;;;14.70;99.90;;;;;;4915466;29;20040;-70
2022/10/24 05:22:18;;;;;;;9.00;3.10;;;14.70;99.90;;;;;;4931792;28;20031;-70
2022/10/24 05:24:44;;;;;;;7.28;2.67;;;14.70;99.90;;;;;;4926781;29;20992;-70
2022/10/24 05:27:10;;;;;;;8.00;3.28;;;14.70;99.90;;;;;;4926292;29;20416;-70
2022/10/24 05:29:35;;;;;;;4.75;3.38;;;14.70;99.90;;;;;;4927695;29;20062;-70
2022/10/24 05:32:01;;;;;;;7.45;2.88;;;14.70;99.90;;;;;;4923232;29;20118;-70
2022/10/24 05:34:27;;;;;;;7.53;3.05;;;14.70;99.90;;;;;;4916731;29;20039;-70
2022/10/24 05:36:54;;;;;;;7.55;3.30;;;14.70;99.90;;;;;;4920100;29;20039;-70
2022/10/24 05:39:19;;;;;;;5.43;3.05;;;14.70;99.90;;;;;;4921031;29;20158;-70
2022/10/24 05:41:45;;;;;;;10.85;3.40;;;14.70;99.90;;;;;;4913094;29;20110;-70
2022/10/24 05:44:12;;;;;;;11.27;3.45;;;14.70;99.90;;;;;;4928601;29;20035;-70
2022/10/24 05:46:38;;;;;;;5.85;3.28;;;14.70;99.90;;;;;;4926985;29;20107;-69
2022/10/24 05:49:04;;;;;;;5.38;2.53;;;14.70;99.90;;;;;;4912427;28;20767;-70
2022/10/24 05:51:30;;;;;;;6.05;2.90;;;14.70;99.90;;;;;;4918477;29;20035;-70
2022/10/24 05:53:55;;;;;;;4.10;2.55;;;14.70;99.90;;;;;;4932450;29;20031;-70
2022/10/24 05:56:21;;;;;;;7.10;3.00;;;14.70;99.90;;;;;;4919989;29;20760;-69
2022/10/24 05:58:47;;;;;;;9.65;2.92;;;14.70;99.90;;;;;;4925063;29;20822;-71
2022/10/24 06:01:13;;;;;;;7.75;2.97;;;14.80;99.90;;;;;;4915590;29;20036;-72
2022/10/24 06:03:38;;;;;;;21.73;3.60;;;14.80;99.90;;;;;;4908228;29;20046;-71
2022/10/24 06:06:06;;;;;;;3.65;2.42;;;14.80;99.90;;;;;;4918535;29;20042;-71
2022/10/24 06:08:36;;;;;;;3.80;2.58;;;14.80;99.90;;;;;;4923598;29;20027;-71
2022/10/24 06:11:01;;;;;;;7.38;3.15;;;14.80;99.90;;;;;;4922488;28;20031;-71
2022/10/24 06:13:28;;;;;;;4.43;2.80;;;14.80;99.90;;;;;;4922563;29;20050;-69
2022/10/24 06:15:53;;;;;;;8.38;3.20;;;14.80;99.90;;;;;;4918308;29;20044;-70
2022/10/24 06:18:19;;;;;;;5.90;3.13;;;14.90;99.90;;;;;;4920169;29;20047;-71
2022/10/24 06:20:45;;;;;;;9.10;3.40;;;14.90;99.90;;;;;;4926266;29;20191;-70
2022/10/24 06:23:11;;;;;;;6.15;3.47;;;14.90;99.90;;;;;;4930126;29;20071;-69
2022/10/24 06:25:40;;;;;;;7.43;3.13;;;14.90;99.90;;;;;;4921493;28;20078;-69
2022/10/24 06:28:06;;;;;;;6.50;3.30;;;14.90;99.90;;;;;;4917691;28;20081;-71
2022/10/24 06:30:33;;;;;;;8.63;3.38;;;15.00;99.90;;;;;;4921257;29;20030;-70
2022/10/24 06:32:59;;;;;;;5.72;2.85;;;15.00;99.90;;;;;;4922598;29;20078;-70
2022/10/24 06:35:24;;;;;;;7.95;2.92;;;15.00;99.90;;;;;;4920025;29;20515;-70
2022/10/24 06:37:50;;;;;;;9.70;3.35;;;15.10;99.90;;;;;;4918517;29;20508;-70
2022/10/24 06:40:17;;;;;;;12.27;3.38;;;15.10;99.90;;;;;;4921192;29;20563;-71
2022/10/24 06:42:43;;;;;;;4.88;2.65;;;15.20;99.90;;;;;;4924319;29;20031;-72
2022/10/24 06:45:10;;;;;;;11.15;4.18;;;15.20;99.90;;;;;;4939101;28;20052;-72
2022/10/24 06:47:35;;;;;;;8.00;3.47;;;15.30;99.90;;;;;;4920564;29;20035;-73
2022/10/24 06:50:01;;;;;;;7.18;3.22;;;15.30;99.90;;;;;;4927804;29;20062;-72
2022/10/24 06:52:27;;;;;;;8.82;2.92;;;15.40;99.90;;;;;;4919641;29;20055;-72
2022/10/24 06:54:53;;;;;;;8.18;3.15;;;15.40;99.90;;;;;;4911456;29;20039;-72
2022/10/24 06:57:18;;;;;;;6.68;3.58;;;15.50;99.90;;;;;;4918268;29;20040;-72
2022/10/24 06:59:44;;;;;;;9.55;2.97;;;15.50;99.90;;;;;;4921991;29;20819;-71
2022/10/24 07:02:15;;;;;;;6.20;3.10;;;15.50;99.90;;;;;;4921061;29;20070;-71
2022/10/24 07:04:41;;;;;;;7.28;2.88;;;15.60;99.90;;;;;;4929751;29;20054;-70
2022/10/24 07:07:06;;;;;;;6.90;2.80;;;15.60;99.80;;;;;;4919508;29;20043;-70
2022/10/24 07:09:32;;;;;;;9.07;3.40;;;15.60;99.80;;;;;;4927322;28;20070;-71
2022/10/24 07:11:58;;;;;;;10.65;3.13;;;15.60;99.90;;;;;;4927544;29;20071;-67
2022/10/24 07:14:24;;;;;;;8.43;3.45;;;15.60;99.90;;;;;;4920328;29;20070;-70
2022/10/24 07:16:51;;;;;;;7.30;2.80;;;15.70;99.90;;;;;;4908191;29;20692;-72
2022/10/24 07:19:17;;;;;;;8.07;2.65;;;15.70;99.90;;;;;;4919755;29;20032;-73
2022/10/24 07:21:42;;;;;;;9.27;3.08;;;15.80;99.90;;;;;;4920411;29;20039;-72
2022/10/24 07:24:11;;;;;;;5.90;2.63;;;15.80;99.90;;;;;;4918103;29;20032;-73
2022/10/24 07:26:38;;;;;;;9.45;3.17;;;16.00;99.80;;;;;;4917767;29;20091;-72
2022/10/24 07:29:03;;;;;;;5.47;2.90;;;16.00;99.50;;;;;;4912721;29;20036;-71
2022/10/24 07:31:32;;;;;;;6.50;3.00;;;16.10;99.40;;;;;;4909862;29;20032;-72
2022/10/24 07:33:59;;;;;;;5.25;2.95;;;16.10;99.50;;;;;;4915222;29;20042;-72
2022/10/24 07:36:26;;;;;;;5.72;2.92;;;16.20;99.10;;;;;;4912762;29;20040;-71
2022/10/24 07:38:55;;;;;;;13.63;2.70;;;16.30;99.10;;;;;;4921526;29;20028;-69
2022/10/24 07:41:23;;;;;;;10.88;2.70;;;16.50;98.90;;;;;;4915589;29;20118;-72
2022/10/24 07:43:49;;;;;;;7.95;2.72;;;16.50;98.70;;;;;;4916165;29;20028;-72
2022/10/24 07:46:17;;;;;;;7.93;3.28;;;16.60;98.50;;;;;;4913599;29;20106;-72
2022/10/24 07:48:43;;;;;;;6.20;2.97;;;16.60;98.30;;;;;;4918187;29;20057;-71
2022/10/24 07:51:12;;;;;;;6.38;2.70;;;16.70;98.50;;;;;;4916009;29;20051;-74
2022/10/24 07:53:38;;;;;;;8.85;2.83;;;16.80;98.10;;;;;;4920519;29;20028;-74
2022/10/24 07:56:08;;;;;;;7.43;2.78;;;16.70;98.20;;;;;;4921862;29;20059;-74
2022/10/24 07:58:34;;;;;;;9.77;2.85;;;16.80;98.20;;;;;;4913485;29;20085;-75
2022/10/24 08:01:10;;;;;;;6.03;2.42;;;16.90;97.80;;;;;;4920489;28;20051;-74
2022/10/24 08:03:36;;;;;;;12.68;2.63;;;17.00;97.90;;;;;;4917220;29;20070;-74
2022/10/24 08:06:08;;;;;;;6.88;2.63;;;17.10;97.60;;;;;;4920468;29;20075;-74
2022/10/24 08:08:35;;;;;;;7.35;2.85;;;17.10;97.70;;;;;;4917001;29;20043;-74
2022/10/24 08:11:05;;;;;;;8.23;2.90;;;17.20;97.40;;;;;;4920579;29;20042;-74
2022/10/24 08:13:31;;;;;;;6.72;2.55;;;17.20;97.50;;;;;;4924958;29;20118;-73
2022/10/24 08:15:56;;;;;;;9.48;2.83;;;17.20;97.40;;;;;;4926518;29;20036;-73
2022/10/24 08:18:22;;;;;;;6.95;2.72;;;17.20;97.30;;;;;;4920664;29;20413;-70
2022/10/24 08:21:04;;;;;;;8.10;2.72;;;17.20;97.50;;;;;;4918040;29;20438;-72
2022/10/24 08:23:31;;;;;;;9.68;2.55;;;17.30;97.20;;;;;;4913663;29;20063;-71
2022/10/24 08:25:57;;;;;;;7.85;3.50;;;17.40;97.20;;;;;;4914158;29;20035;-71
2022/10/24 08:28:23;;;;;;;8.27;2.60;;;17.40;97.10;;;;;;4910211;29;20814;-68
2022/10/24 08:31:03;;;;;;;8.95;2.78;;;17.50;96.80;;;;;;4910949;29;20046;-69
2022/10/24 08:33:30;;;;;;;7.80;3.08;;;17.60;96.70;;;;;;4913843;29;20051;-71
2022/10/24 08:36:15;;;;;;;9.80;3.25;;;17.60;96.30;;;;;;4920348;29;20035;-72
2022/10/24 08:38:41;;;;;;;8.32;2.60;;;17.70;96.20;;;;;;4917390;28;20036;-70
2022/10/24 08:41:11;;;;;;;9.40;2.70;;;17.80;96.60;;;;;;4919294;29;20535;-71
2022/10/24 08:43:37;;;;;;;9.23;2.47;;;17.90;96.30;;;;;;4912883;29;20036;-69
2022/10/24 08:46:33;;;;;;;10.30;2.80;;;18.00;96.10;;;;;;4925938;29;20047;-69
2022/10/24 08:49:26;;;;;;;7.87;2.67;;;18.00;96.00;;;;;;4921325;29;20114;-70
2022/10/24 08:52:24;;;;;;;6.40;2.42;;;18.20;95.60;;;;;;4911718;29;20066;-70
2022/10/24 08:54:51;;;;;;;10.70;2.72;;;18.30;95.30;;;;;;4918696;29;20043;-73
2022/10/24 08:57:22;;;;;;;4.93;2.15;;;18.40;95.30;;;;;;4919059;29;20035;-74
2022/10/24 08:59:50;;;;;;;6.80;2.00;;;18.40;95.20;;;;;;4921077;29;20184;-74
2022/10/24 09:02:24;;;;;;;6.85;2.20;;;18.60;95.00;;;;;;4919171;29;20131;-70
2022/10/24 09:04:53;;;;;;;5.40;1.83;;;18.70;94.60;;;;;;4912307;29;20044;-69
2022/10/24 09:07:20;;;;;;;11.07;3.00;;;18.60;94.60;;;;;;4928062;29;20087;-71
2022/10/24 09:09:49;;;;;;;8.68;3.50;;;18.70;94.70;;;;;;4915519;28;20024;-70
2022/10/24 09:12:18;;;;;;;4.95;2.47;;;18.80;94.50;;;;;;4909843;29;20903;-70
2022/10/24 09:14:48;;;;;;;8.15;2.72;;;18.90;94.20;;;;;;4931392;29;20040;-70
2022/10/24 09:17:18;;;;;;;4.53;2.22;;;18.90;93.90;;;;;;4916616;29;20036;-70
2022/10/24 09:19:57;;;;;;;4.97;2.13;;;18.90;93.90;;;;;;4915193;29;20559;-70
2022/10/24 09:22:26;;;;;;;8.13;2.50;;;18.80;93.90;;;;;;4918637;29;20036;-70
2022/10/24 09:25:03;;;;;;;10.38;3.03;;;18.70;93.50;;;;;;4918117;29;20103;-68
2022/10/24 09:27:33;;;;;;;6.72;2.45;;;18.60;93.60;;;;;;4925309;29;20092;-68
2022/10/24 09:30:00;;;;;;;7.00;2.20;;;18.60;94.10;;;;;;4916937;29;20036;-70
2022/10/24 09:32:29;;;;;;;7.60;2.28;;;18.60;94.00;;;;;;4916988;29;20068;-71
2022/10/24 09:34:59;;;;;;;6.60;2.17;;;18.70;93.60;;;;;;4917788;29;20111;-71
2022/10/24 09:37:47;;;;;;;6.22;2.17;;;18.70;93.90;;;;;;4920551;29;20086;-71
2022/10/24 09:40:21;;;;;;;7.50;2.22;;;18.80;93.70;;;;;;4924884;29;20039;-71
2022/10/24 09:42:53;;;;;;;10.73;2.60;;;18.80;93.60;;;;;;4923960;29;20042;-69
2022/10/24 09:45:35;;;;;;;11.18;2.15;;;18.80;93.20;;;;;;4923665;29;20031;-69
2022/10/24 09:48:15;;;;;;;6.28;2.08;;;18.80;93.50;;;;;;4917522;29;20036;-70
2022/10/24 09:50:43;;;;;;;6.55;2.08;;;18.80;93.50;;;;;;4919678;29;20032;-69
2022/10/24 09:53:23;;;;;;;11.45;2.30;;;18.80;93.30;;;;;;4920319;29;20044;-69
2022/10/24 09:56:05;;;;;;;9.50;2.10;;;18.70;92.90;;;;;;4915286;29;20043;-70
2022/10/24 09:58:34;;;;;;;5.95;2.15;;;18.70;93.10;;;;;;4913285;29;20625;-70
2022/10/24 10:01:06;;;;;;;11.40;2.78;;;18.80;93.10;;;;;;4917174;29;20074;-70
2022/10/24 10:03:33;;;;;;;9.73;2.38;;;18.80;93.40;;;;;;4921072;29;20122;-70
2022/10/24 10:06:14;;;;;;;7.88;2.25;;;18.90;93.10;;;;;;4919300;29;20457;-70
2022/10/24 10:08:40;;;;;;;7.03;1.75;;;18.90;92.60;;;;;;4919607;29;20452;-70
2022/10/24 10:11:08;;;;;;;7.50;1.90;;;18.80;92.50;;;;;;4919556;29;20114;-70
2022/10/24 10:13:44;;;;;;;9.18;2.13;;;18.70;93.10;;;;;;4917062;29;20035;-70
2022/10/24 10:16:22;;;;;;;9.85;2.22;;;18.70;93.80;;;;;;4917210;29;20136;-70
2022/10/24 10:18:48;;;;;;;9.57;2.08;;;18.80;93.30;;;;;;4919255;29;20083;-72
2022/10/24 10:21:17;;;;;;;7.60;1.75;;;18.80;92.90;;;;;;4921202;29;20035;-70
2022/10/24 10:23:47;;;;;;;7.28;2.42;;;18.80;92.90;;;;;;4914935;29;20024;-69
2022/10/24 10:26:17;;;;;;;10.85;2.10;;;18.80;93.00;;;;;;4918596;29;20086;-70
2022/10/24 10:28:49;;;;;;;8.85;2.13;;;18.90;92.90;;;;;;4921616;29;20032;-70
2022/10/24 10:31:18;;;;;;;6.15;2.42;;;18.90;93.20;;;;;;4922167;29;20612;-69
2022/10/24 10:34:09;;;;;;;8.63;2.00;;;18.90;92.60;;;;;;4927871;29;20023;-69
2022/10/24 10:37:29;;;;;;;8.60;1.70;;;18.80;92.60;;;;;;4921267;29;20039;-73
2022/10/24 10:40:14;;;;;;;7.72;2.13;;;18.70;92.80;;;;;;4866419;29;20037;-73
2022/10/24 10:43:01;;;;;;;10.40;2.20;;;18.70;93.00;;;;;;4913330;29;20555;-73
2022/10/24 10:45:56;;;;;;;7.80;1.98;;;18.80;93.20;;;;;;4920465;29;20485;-73
2022/10/24 10:48:31;;;;;;;9.35;1.83;;;18.90;92.50;;;;;;4919067;29;20083;-73
2022/10/24 10:51:13;;;;;;;10.13;2.13;;;18.80;92.40;;;;;;4928535;29;20031;-73
2022/10/24 10:53:49;;;;;;;4.65;1.52;;;18.90;92.30;;;;;;4916687;29;20127;-73
2022/10/24 10:56:36;;;;;;;10.15;1.75;;;18.80;92.10;;;;;;4934634;29;20031;-72
2022/10/24 10:59:01;;;;;;;6.47;2.33;;;18.90;92.00;;;;;;4922072;29;20036;-76
2022/10/24 11:01:55;;;;;;;14.77;1.90;;;18.90;92.30;;;;;;4918808;29;20059;-73
2022/10/24 11:04:57;;;;;;;8.55;2.05;;;18.90;92.30;;;;;;4921505;29;20046;-72
2022/10/24 11:07:32;;;;;;;11.98;2.35;;;18.90;91.90;;;;;;4922904;29;20577;-72
2022/10/24 11:10:06;;;;;;;7.20;1.60;;;18.90;92.20;;;;;;4916502;29;20044;-69
2022/10/24 11:12:36;;;;;;;7.03;1.92;;;18.90;92.30;;;;;;4917806;29;20040;-69
2022/10/24 11:15:29;;;;;;;6.30;2.22;;;19.00;92.00;;;;;;4915276;29;20445;-70
2022/10/24 11:18:12;;;;;;;8.27;1.80;;;19.00;91.70;;;;;;4912365;29;20047;-71
2022/10/24 11:20:52;;;;;;;4.03;1.70;;;19.00;91.80;;;;;;4919572;29;20784;-71
2022/10/24 11:23:37;;;;;;;5.40;1.95;;;19.00;91.70;;;;;;4919937;29;20106;-79
2022/10/24 11:26:26;;;;;;;4.93;1.35;;;18.90;92.40;;;;;;4918446;29;20048;-71
2022/10/24 11:28:55;;;;;;;4.78;1.70;;;18.90;92.30;;;;;;4919220;29;20080;-69
2022/10/24 11:31:32;;;;;;;10.52;2.10;;;18.90;92.10;;;;;;4917502;29;20142;-69
2022/10/24 11:34:13;;;;;;;6.53;1.73;;;19.00;92.00;;;;;;4921116;29;20122;-69
2022/10/24 11:36:50;;;;;;;14.38;1.90;;;19.10;91.90;;;;;;4914166;29;20059;-67
2022/10/24 11:39:24;;;;;;;6.25;1.70;;;19.20;91.90;;;;;;4911381;29;20114;-69
2022/10/24 11:42:09;;;;;;;5.97;1.70;;;19.20;91.60;;;;;;4916480;29;20035;-68
2022/10/24 11:45:03;;;;;;;6.97;1.50;;;19.20;91.70;;;;;;4919148;29;20037;-68
2022/10/24 11:47:48;;;;;;;12.65;2.22;;;19.10;91.80;;;;;;4916943;29;20039;-68
2022/10/24 11:50:36;;;;;;;12.70;2.67;;;19.10;92.00;;;;;;4922235;29;20031;-69
2022/10/24 11:53:27;;;;;;;7.63;1.80;;;19.10;92.30;;;;;;4913920;29;20275;-69
2022/10/24 11:56:16;;;;;;;5.82;1.75;;;19.20;91.90;;;;;;4915639;28;20123;-71
2022/10/24 11:59:00;;;;;;;7.13;1.80;;;19.20;91.90;;;;;;4914606;29;20036;-70
2022/10/24 12:01:38;;;;;;;5.43;1.75;;;19.30;91.60;;;;;;4920449;29;20035;-70
2022/10/24 12:04:39;;;;;;;9.88;1.90;;;19.40;91.50;;;;;;4918134;29;20067;-70
2022/10/24 12:07:53;;;;;;;9.35;1.85;;;19.30;91.40;;;;;;4915772;29;20066;-68
2022/10/24 12:10:39;;;;;;;9.13;2.10;;;19.20;91.80;;;;;;4916628;29;20035;-81
2022/10/24 12:13:33;;;;;;;7.75;2.13;;;19.30;91.40;;;;;;4896011;29;20047;-81
2022/10/24 12:16:12;;;;;;;8.43;2.35;;;19.30;91.30;;;;;;4906751;29;20501;-81
2022/10/24 12:18:48;;;;;;;7.10;1.98;;;19.50;91.00;;;;;;4904418;29;20036;-82
2022/10/24 12:21:18;;;;;;;8.57;3.30;;;19.50;90.90;;;;;;4913110;29;20047;-81
2022/10/24 12:23:54;;;;;;;10.57;3.42;;;19.50;91.20;;;;;;4912797;29;20842;-80
2022/10/24 12:26:29;;;;;;;4.88;2.28;;;19.60;90.60;;;;;;4910975;29;20292;-80
2022/10/24 12:29:05;;;;;;;9.43;2.00;;;19.50;90.60;;;;;;4935581;28;20046;-78
2022/10/24 12:31:36;;;;;;;6.82;1.58;;;19.50;90.30;;;;;;4917483;29;20047;-78
2022/10/24 12:34:26;;;;;;;9.23;1.92;;;19.40;90.70;;;;;;4919336;29;20044;-78
2022/10/24 12:37:17;;;;;;;8.27;1.52;;;19.50;90.80;;;;;;4916021;29;20649;-78
2022/10/24 12:39:49;;;;;;;4.93;1.60;;;19.40;90.90;;;;;;4926844;29;20039;-78
2022/10/24 12:42:23;;;;;;;5.47;1.40;;;19.50;90.80;;;;;;4918002;28;20728;-78
2022/10/24 12:44:58;;;;;;;8.60;2.30;;;19.70;90.70;;;;;;4928438;28;20822;-74
2022/10/24 12:47:28;;;;;;;10.65;1.90;;;19.80;90.10;;;;;;4908086;29;20040;-79
2022/10/24 12:49:56;;;;;;;7.05;1.80;;;19.90;90.20;;;;;;4922490;29;20046;-81
2022/10/24 12:52:30;;;;;;;9.95;2.20;;;20.00;90.00;;;;;;4901437;29;20047;-80
2022/10/24 12:54:57;;;;;;;7.88;1.50;;;19.90;89.00;;;;;;4919761;29;20496;-69
2022/10/24 12:57:36;;;;;;;9.40;2.38;;;19.90;90.20;;;;;;4916650;29;20308;-69
2022/10/24 13:00:20;;;;;;;9.45;1.85;;;19.80;90.30;;;;;;4912626;29;20040;-69
2022/10/24 13:03:27;;;;;;;8.98;2.25;;;19.90;90.50;;;;;;4918881;29;20115;-69
2022/10/24 13:06:04;;;;;;;5.30;1.40;;;19.80;89.80;;;;;;4901133;29;20040;-74
2022/10/24 13:09:04;;;;;;;8.70;3.30;;;19.80;90.00;;;;;;4920303;29;20119;-68